Time;durP1;ratioP1;P1;durP2;ratioP2;P2;SDS_P1;SDS_P2;PMS_P1;PMS_P2;Temp;Humidity;BMP_temperature;BMP_pressure;BME280_temperature;BME280_humidity;BME280_pressure;Samples;Min_cycle;Max_cycle;Signal;HPM_P1;HPM_P2
2023/09/20 00:02:01;;;;;;;4.80;3.53;;;;;;;;;;5045167;28;20034;-61
2023/09/20 00:04:26;;;;;;;4.13;2.47;;;;;;;;;;5061832;28;20105;-61
2023/09/20 00:06:52;;;;;;;10.10;3.40;;;;;;;;;;5067887;28;20501;-61
2023/09/20 00:09:17;;;;;;;15.27;4.05;;;;;;;;;;5069834;28;20037;-61
2023/09/20 00:11:46;;;;;;;8.13;3.63;;;;;;;;;;5063835;28;20055;-61
2023/09/20 00:14:11;;;;;;;5.43;2.60;;;;;;;;;;5049510;28;20491;-62
2023/09/20 00:16:37;;;;;;;6.53;3.03;;;;;;;;;;5048290;28;20029;-61
2023/09/20 00:19:02;;;;;;;7.53;2.83;;;;;;;;;;5049094;28;20028;-62
2023/09/20 00:21:27;;;;;;;5.20;2.67;;;;;;;;;;5051624;28;20463;-62
2023/09/20 00:23:52;;;;;;;20.27;3.55;;;;;;;;;;5053093;28;20957;-62
2023/09/20 00:26:20;;;;;;;10.63;4.05;;;;;;;;;;5051600;28;20037;-62
2023/09/20 00:28:48;;;;;;;6.03;3.38;;;;;;;;;;5051876;28;20047;-62
2023/09/20 00:31:17;;;;;;;12.18;3.58;;;;;;;;;;5061945;28;20046;-61
2023/09/20 00:33:42;;;;;;;;;;;;;;;;;;5067435;28;20405;-61
2023/09/20 00:36:07;;;;;;;8.35;2.35;;;;;;;;;;5061089;28;19915;-62
2023/09/20 00:38:32;;;;;;;8.63;2.90;;;;;;;;;;5072696;28;20442;-61
2023/09/20 00:40:57;;;;;;;8.20;3.73;;;;;;;;;;5070932;28;20084;-61
2023/09/20 00:43:23;;;;;;;13.70;4.23;;;;;;;;;;5073017;28;20099;-61
2023/09/20 00:45:48;;;;;;;10.10;4.65;;;;;;;;;;5069980;28;20910;-62
2023/09/20 00:48:15;;;;;;;8.30;2.83;;;;;;;;;;5072058;28;20028;-61
2023/09/20 00:50:43;;;;;;;7.95;3.30;;;;;;;;;;5071444;28;20833;-62
2023/09/20 00:53:11;;;;;;;9.57;4.13;;;;;;;;;;5072922;28;20017;-62
2023/09/20 00:55:36;;;;;;;9.93;3.97;;;;;;;;;;5070441;28;20505;-62
2023/09/20 00:58:04;;;;;;;10.10;3.15;;;;;;;;;;5057184;28;20029;-63
2023/09/20 01:00:32;;;;;;;9.88;3.38;;;;;;;;;;5071743;28;20025;-62
2023/09/20 01:02:58;;;;;;;10.50;3.30;;;;;;;;;;5072660;28;20089;-62
2023/09/20 01:05:25;;;;;;;7.95;3.63;;;;;;;;;;5057765;28;20032;-62
2023/09/20 01:07:57;;;;;;;5.17;2.87;;;;;;;;;;5071995;28;20021;-63
2023/09/20 01:10:24;;;;;;;8.10;3.05;;;;;;;;;;5070810;28;20443;-62
2023/09/20 01:12:54;;;;;;;5.43;3.17;;;;;;;;;;5072369;28;20048;-62
2023/09/20 01:15:21;;;;;;;10.05;3.22;;;;;;;;;;5071104;28;20021;-61
2023/09/20 01:17:47;;;;;;;6.50;1.95;;;;;;;;;;5071652;28;20074;-61
2023/09/20 01:20:13;;;;;;;10.23;4.18;;;;;;;;;;5070742;28;20027;-62
2023/09/20 01:22:38;;;;;;;10.00;2.70;;;;;;;;;;5072379;28;20012;-62
2023/09/20 01:25:07;;;;;;;6.57;3.00;;;;;;;;;;5069705;28;20467;-61
2023/09/20 01:27:35;;;;;;;5.68;3.25;;;;;;;;;;5058377;28;20027;-61
2023/09/20 01:30:00;;;;;;;7.68;2.63;;;;;;;;;;5072540;28;20075;-62
2023/09/20 01:32:25;;;;;;;7.00;3.00;;;;;;;;;;5069728;28;20442;-62
2023/09/20 01:34:50;;;;;;;8.23;2.63;;;;;;;;;;5071966;28;20180;-62
2023/09/20 01:37:16;;;;;;;10.77;3.63;;;;;;;;;;5070270;28;20442;-62
2023/09/20 01:39:42;;;;;;;7.15;2.80;;;;;;;;;;5070248;28;20020;-62
2023/09/20 01:42:07;;;;;;;8.80;3.05;;;;;;;;;;5069754;28;20376;-62
2023/09/20 01:44:37;;;;;;;10.77;4.65;;;;;;;;;;5071765;28;20032;-61
2023/09/20 01:47:02;;;;;;;8.10;3.03;;;;;;;;;;5069747;28;20036;-61
2023/09/20 01:49:27;;;;;;;4.68;2.42;;;;;;;;;;5072157;28;20047;-62
2023/09/20 01:51:53;;;;;;;6.72;3.00;;;;;;;;;;5070031;28;20051;-62
2023/09/20 01:54:19;;;;;;;5.68;2.47;;;;;;;;;;5071465;28;20028;-61
2023/09/20 01:56:44;;;;;;;5.82;3.55;;;;;;;;;;5069621;28;20032;-62
2023/09/20 01:59:09;;;;;;;8.02;2.55;;;;;;;;;;5071159;28;20031;-62
2023/09/20 02:01:35;;;;;;;5.43;2.73;;;;;;;;;;5069778;28;20045;-62
2023/09/20 02:04:00;;;;;;;4.30;3.22;;;;;;;;;;5070919;28;20100;-61
2023/09/20 02:06:26;;;;;;;4.13;2.90;;;;;;;;;;5069727;28;20105;-61
2023/09/20 02:08:53;;;;;;;9.18;3.55;;;;;;;;;;5070795;28;20576;-61
2023/09/20 02:11:18;;;;;;;8.25;3.45;;;;;;;;;;5067864;28;20524;-61
2023/09/20 02:13:43;;;;;;;18.52;7.53;;;;;;;;;;5069449;28;20021;-61
2023/09/20 02:16:09;;;;;;;11.65;4.57;;;;;;;;;;5069203;28;20441;-62
2023/09/20 02:18:35;;;;;;;14.15;3.13;;;;;;;;;;5071041;28;20028;-61
2023/09/20 02:21:00;;;;;;;10.20;3.10;;;;;;;;;;5069565;28;20511;-61
2023/09/20 02:23:27;;;;;;;14.70;4.47;;;;;;;;;;5070994;28;20032;-62
2023/09/20 02:25:54;;;;;;;9.70;4.00;;;;;;;;;;5069181;28;20527;-61
2023/09/20 02:28:20;;;;;;;13.93;3.85;;;;;;;;;;5070910;28;20039;-62
2023/09/20 02:30:45;;;;;;;8.52;3.78;;;;;;;;;;5068970;28;20043;-62
2023/09/20 02:33:14;;;;;;;9.43;3.43;;;;;;;;;;5070586;28;20462;-62
2023/09/20 02:35:39;;;;;;;13.00;4.47;;;;;;;;;;5068960;28;20508;-62
2023/09/20 02:38:05;;;;;;;9.93;3.50;;;;;;;;;;5070521;28;20012;-61
2023/09/20 02:40:30;;;;;;;6.63;4.35;;;;;;;;;;5069142;28;20740;-60
2023/09/20 02:42:59;;;;;;;6.18;3.70;;;;;;;;;;5070161;28;20491;-60
2023/09/20 02:45:25;;;;;;;9.98;3.50;;;;;;;;;;5067415;28;20083;-61
2023/09/20 02:47:50;;;;;;;6.07;3.42;;;;;;;;;;5070185;28;20581;-61
2023/09/20 02:50:18;;;;;;;8.57;4.60;;;;;;;;;;5069457;28;20044;-60
2023/09/20 02:52:45;;;;;;;7.53;3.70;;;;;;;;;;5070054;28;20111;-61
2023/09/20 02:55:12;;;;;;;18.27;3.15;;;;;;;;;;5069000;28;20021;-60
2023/09/20 02:57:37;;;;;;;10.93;3.23;;;;;;;;;;5068749;28;20048;-61
2023/09/20 03:00:06;;;;;;;9.27;3.70;;;;;;;;;;5069244;28;20510;-59
2023/09/20 03:02:34;;;;;;;5.38;3.20;;;;;;;;;;5070158;28;20553;-61
2023/09/20 03:04:59;;;;;;;6.40;2.60;;;;;;;;;;5069900;28;20027;-61
2023/09/20 03:07:24;;;;;;;7.77;3.03;;;;;;;;;;5068979;28;20111;-61
2023/09/20 03:09:49;;;;;;;9.03;2.53;;;;;;;;;;5070136;28;20021;-61
2023/09/20 03:12:15;;;;;;;11.88;3.63;;;;;;;;;;5063913;28;20042;-60
2023/09/20 03:14:41;;;;;;;6.90;2.50;;;;;;;;;;5068596;28;20020;-61
2023/09/20 03:17:07;;;;;;;7.07;3.97;;;;;;;;;;5049536;28;20121;-60
2023/09/20 03:19:32;;;;;;;12.03;4.70;;;;;;;;;;5055396;28;20092;-60
2023/09/20 03:21:59;;;;;;;5.25;2.70;;;;;;;;;;5067712;28;20381;-60
2023/09/20 03:24:24;;;;;;;13.18;3.70;;;;;;;;;;5069924;28;20067;-60
2023/09/20 03:26:52;;;;;;;6.05;3.80;;;;;;;;;;5053378;28;20090;-60
2023/09/20 03:29:17;;;;;;;8.45;3.13;;;;;;;;;;5050255;28;20074;-61
2023/09/20 03:31:43;;;;;;;8.05;3.67;;;;;;;;;;5053128;28;20471;-60
2023/09/20 03:34:10;;;;;;;13.30;4.93;;;;;;;;;;5069792;28;20041;-60
2023/09/20 03:36:36;;;;;;;9.43;3.55;;;;;;;;;;5066373;28;20036;-60
2023/09/20 03:39:01;;;;;;;6.30;4.30;;;;;;;;;;5068299;28;20021;-60
2023/09/20 03:41:26;;;;;;;18.53;5.60;;;;;;;;;;5068673;28;20033;-60
2023/09/20 03:43:51;;;;;;;7.43;4.30;;;;;;;;;;5070288;28;20438;-60
2023/09/20 03:46:17;;;;;;;2.92;2.60;;;;;;;;;;5068127;28;20453;-60
2023/09/20 03:48:44;;;;;;;10.33;4.53;;;;;;;;;;5070090;28;20052;-61
2023/09/20 03:51:15;;;;;;;13.18;3.95;;;;;;;;;;5068593;28;20087;-61
2023/09/20 03:53:43;;;;;;;8.40;3.28;;;;;;;;;;5069440;28;20023;-60
2023/09/20 03:56:08;;;;;;;9.80;3.55;;;;;;;;;;5071865;28;20075;-60
2023/09/20 03:58:34;;;;;;;6.43;3.60;;;;;;;;;;5073790;28;20024;-60
2023/09/20 04:01:02;;;;;;;5.30;3.20;;;;;;;;;;5072280;28;20052;-61
2023/09/20 04:03:27;;;;;;;17.08;4.05;;;;;;;;;;5074240;28;20028;-60
2023/09/20 04:05:56;;;;;;;6.10;3.30;;;;;;;;;;5072320;28;20120;-61
2023/09/20 04:08:21;;;;;;;8.50;2.90;;;;;;;;;;5073701;28;20027;-60
2023/09/20 04:10:47;;;;;;;9.38;3.40;;;;;;;;;;5072083;28;20403;-60
2023/09/20 04:13:13;;;;;;;10.18;5.45;;;;;;;;;;5073648;28;20063;-60
2023/09/20 04:15:40;;;;;;;4.10;2.90;;;;;;;;;;5071715;28;20055;-60
2023/09/20 04:18:08;;;;;;;9.03;2.57;;;;;;;;;;5073801;28;20024;-60
2023/09/20 04:20:33;;;;;;;7.03;4.65;;;;;;;;;;5071958;28;20507;-59
2023/09/20 04:22:58;;;;;;;5.65;3.80;;;;;;;;;;5073115;28;20103;-60
2023/09/20 04:25:23;;;;;;;5.53;3.55;;;;;;;;;;5072054;28;20422;-60
2023/09/20 04:27:49;;;;;;;9.93;4.00;;;;;;;;;;5071884;28;20020;-60
2023/09/20 04:30:17;;;;;;;6.10;3.30;;;;;;;;;;5071878;28;20107;-60
2023/09/20 04:32:42;;;;;;;12.48;4.78;;;;;;;;;;5072912;28;20043;-60
2023/09/20 04:35:07;;;;;;;7.10;2.77;;;;;;;;;;5071890;28;20017;-60
2023/09/20 04:37:32;;;;;;;11.33;4.07;;;;;;;;;;5072409;28;20026;-60
2023/09/20 04:39:58;;;;;;;5.72;3.65;;;;;;;;;;5073256;28;20757;-60
2023/09/20 04:42:23;;;;;;;9.60;3.70;;;;;;;;;;5070492;28;20048;-60
2023/09/20 04:44:49;;;;;;;12.20;3.77;;;;;;;;;;5072608;28;20426;-60
2023/09/20 04:47:16;;;;;;;7.22;2.95;;;;;;;;;;5071522;28;20040;-60
2023/09/20 04:49:42;;;;;;;11.40;4.20;;;;;;;;;;5073124;28;20024;-60
2023/09/20 04:52:10;;;;;;;7.95;4.25;;;;;;;;;;5071194;28;20037;-60
2023/09/20 04:54:35;;;;;;;8.85;3.75;;;;;;;;;;5071293;28;20016;-60
2023/09/20 04:57:01;;;;;;;8.82;3.75;;;;;;;;;;5071495;28;20036;-60
2023/09/20 04:59:26;;;;;;;6.65;3.58;;;;;;;;;;5072456;28;20021;-60
2023/09/20 05:01:51;;;;;;;16.73;5.47;;;;;;;;;;5071155;28;20033;-60
2023/09/20 05:04:19;;;;;;;10.77;4.67;;;;;;;;;;5071511;28;20435;-60
2023/09/20 05:06:45;;;;;;;21.55;5.85;;;;;;;;;;5070240;28;20044;-60
2023/09/20 05:09:11;;;;;;;7.57;4.13;;;;;;;;;;5072545;28;20531;-60
2023/09/20 05:11:36;;;;;;;8.65;4.57;;;;;;;;;;5070998;28;20068;-60
2023/09/20 05:14:01;;;;;;;7.82;3.17;;;;;;;;;;5072311;28;20107;-62
2023/09/20 05:16:27;;;;;;;9.33;3.30;;;;;;;;;;5070938;28;20028;-62
2023/09/20 05:18:52;;;;;;;4.40;2.88;;;;;;;;;;5072148;28;20048;-58
2023/09/20 05:21:17;;;;;;;5.83;4.07;;;;;;;;;;5070765;28;20102;-59
2023/09/20 05:23:42;;;;;;;10.33;4.47;;;;;;;;;;5070483;28;20446;-57
2023/09/20 05:26:07;;;;;;;11.68;4.30;;;;;;;;;;5070982;28;20504;-58
2023/09/20 05:28:33;;;;;;;7.27;4.20;;;;;;;;;;5071760;28;20104;-58
2023/09/20 05:30:58;;;;;;;5.63;3.15;;;;;;;;;;5070853;28;20444;-58
2023/09/20 05:33:23;;;;;;;9.30;4.63;;;;;;;;;;5072009;28;20072;-58
2023/09/20 05:35:49;;;;;;;9.15;3.60;;;;;;;;;;5070382;28;20090;-58
2023/09/20 05:38:17;;;;;;;6.15;4.28;;;;;;;;;;5070406;28;20055;-57
2023/09/20 05:40:43;;;;;;;5.85;3.30;;;;;;;;;;5070609;28;20024;-57
2023/09/20 05:43:08;;;;;;;9.02;3.80;;;;;;;;;;5072363;28;20016;-57
2023/09/20 05:45:36;;;;;;;8.32;4.55;;;;;;;;;;5068554;28;20033;-58
2023/09/20 05:48:02;;;;;;;7.35;4.82;;;;;;;;;;5072009;28;20082;-57
2023/09/20 05:50:33;;;;;;;11.30;5.20;;;;;;;;;;5070666;28;20032;-58
2023/09/20 05:53:12;;;;;;;10.98;4.47;;;;;;;;;;5070112;28;20016;-57
2023/09/20 05:55:37;;;;;;;7.28;3.50;;;;;;;;;;5070186;28;20028;-57
2023/09/20 05:58:03;;;;;;;7.03;3.72;;;;;;;;;;5071676;28;20032;-58
2023/09/20 06:00:29;;;;;;;9.65;4.18;;;;;;;;;;5070303;28;20113;-58
2023/09/20 06:02:56;;;;;;;7.90;3.50;;;;;;;;;;5070085;28;20108;-58
2023/09/20 06:05:24;;;;;;;10.98;3.88;;;;;;;;;;5070192;28;20026;-58
2023/09/20 06:07:49;;;;;;;4.45;2.70;;;;;;;;;;5070294;28;20020;-57
2023/09/20 06:10:18;;;;;;;7.83;5.10;;;;;;;;;;5069507;28;20067;-57
2023/09/20 06:12:43;;;;;;;6.38;4.60;;;;;;;;;;5069310;28;20017;-58
2023/09/20 06:15:10;;;;;;;7.97;3.60;;;;;;;;;;5068753;28;20545;-57
2023/09/20 06:17:36;;;;;;;9.10;3.60;;;;;;;;;;5070586;28;20032;-58
2023/09/20 06:20:01;;;;;;;6.40;3.25;;;;;;;;;;5071734;28;20012;-58
2023/09/20 06:22:28;;;;;;;4.82;3.10;;;;;;;;;;5069208;28;20102;-57
2023/09/20 06:24:53;;;;;;;13.10;3.95;;;;;;;;;;5070883;28;20024;-58
2023/09/20 06:27:20;;;;;;;7.20;3.03;;;;;;;;;;5066877;28;20032;-58
2023/09/20 06:29:45;;;;;;;3.78;2.85;;;;;;;;;;5068646;28;20034;-58
2023/09/20 06:32:10;;;;;;;4.87;2.93;;;;;;;;;;5069447;28;20119;-58
2023/09/20 06:34:35;;;;;;;8.52;3.35;;;;;;;;;;5056364;28;20052;-58
2023/09/20 06:37:00;;;;;;;8.02;2.88;;;;;;;;;;5048754;28;20029;-58
2023/09/20 06:39:26;;;;;;;6.95;2.78;;;;;;;;;;5050886;28;20036;-58
2023/09/20 06:41:51;;;;;;;5.18;2.45;;;;;;;;;;5047773;28;20029;-58
2023/09/20 06:44:16;;;;;;;9.80;3.93;;;;;;;;;;5050340;28;20111;-58
2023/09/20 06:46:42;;;;;;;11.05;4.13;;;;;;;;;;5049112;28;20033;-57
2023/09/20 06:49:08;;;;;;;7.32;3.22;;;;;;;;;;5050979;28;20031;-58
2023/09/20 06:51:34;;;;;;;8.60;2.88;;;;;;;;;;5060717;28;20040;-58
2023/09/20 06:53:59;;;;;;;7.45;4.03;;;;;;;;;;5070433;28;20471;-58
2023/09/20 06:56:25;;;;;;;7.25;3.70;;;;;;;;;;5068957;28;20036;-57
2023/09/20 06:58:51;;;;;;;8.48;3.33;;;;;;;;;;5068239;28;20016;-58
2023/09/20 07:01:17;;;;;;;7.35;3.28;;;;;;;;;;5069436;28;20037;-61
2023/09/20 07:03:42;;;;;;;12.50;4.53;;;;;;;;;;5068788;28;20024;-58
2023/09/20 07:06:07;;;;;;;5.10;3.10;;;;;;;;;;5067212;28;20719;-58
2023/09/20 07:08:34;;;;;;;14.43;5.13;;;;;;;;;;5070393;28;20042;-58
2023/09/20 07:11:00;;;;;;;9.23;3.25;;;;;;;;;;5068904;28;20442;-58
2023/09/20 07:13:26;;;;;;;6.88;3.15;;;;;;;;;;5069720;28;20032;-58
2023/09/20 07:15:54;;;;;;;8.00;3.78;;;;;;;;;;5067728;28;20128;-58
2023/09/20 07:18:19;;;;;;;10.52;4.47;;;;;;;;;;5069132;28;20487;-57
2023/09/20 07:20:45;;;;;;;5.85;3.60;;;;;;;;;;5068163;28;20032;-58
2023/09/20 07:23:10;;;;;;;11.15;4.45;;;;;;;;;;5070269;28;20031;-62
2023/09/20 07:25:36;;;;;;;9.98;3.80;;;;;;;;;;5068831;28;20033;-58
2023/09/20 07:28:04;;;;;;;9.02;3.00;;;;;;;;;;5069857;28;20043;-58
2023/09/20 07:30:31;;;;;;;8.18;3.00;;;;;;;;;;5069041;28;20066;-58
2023/09/20 07:32:58;;;;;;;6.78;2.78;;;;;;;;;;5069732;28;20128;-58
2023/09/20 07:35:37;;;;;;;5.78;3.10;;;;;;;;;;5068695;28;20012;-57
2023/09/20 07:38:03;;;;;;;7.10;2.88;;;;;;;;;;5070337;28;20013;-58
2023/09/20 07:40:29;;;;;;;8.43;3.50;;;;;;;;;;5068763;28;20028;-58
2023/09/20 07:42:59;;;;;;;5.78;3.95;;;;;;;;;;5069591;28;20020;-58
2023/09/20 07:45:24;;;;;;;6.15;4.05;;;;;;;;;;5068893;28;20032;-58
2023/09/20 07:47:49;;;;;;;6.17;2.80;;;;;;;;;;5069633;28;20020;-58
2023/09/20 07:50:15;;;;;;;5.73;2.73;;;;;;;;;;5068368;28;20052;-58
2023/09/20 07:52:40;;;;;;;7.50;4.77;;;;;;;;;;5069778;28;20755;-58
2023/09/20 07:55:06;;;;;;;10.25;3.13;;;;;;;;;;5068809;28;20075;-58
2023/09/20 07:57:32;;;;;;;6.20;3.42;;;;;;;;;;5069390;28;20070;-59
2023/09/20 07:59:59;;;;;;;5.53;3.25;;;;;;;;;;5069989;28;20078;-58
2023/09/20 08:02:24;;;;;;;11.13;4.95;;;;;;;;;;5068381;28;20060;-58
2023/09/20 08:04:50;;;;;;;11.25;2.58;;;;;;;;;;5069565;28;20060;-58
2023/09/20 08:07:15;;;;;;;3.67;2.95;;;;;;;;;;5068597;28;20063;-58
2023/09/20 08:09:40;;;;;;;5.10;2.93;;;;;;;;;;5069518;28;20032;-58
2023/09/20 08:12:08;;;;;;;4.13;2.70;;;;;;;;;;5068089;28;20348;-58
2023/09/20 08:14:33;;;;;;;;;;;;;;;;;;5070322;28;20096;-58
2023/09/20 08:19:43;;;;;;;3.47;2.78;;;;;;;;;;5065669;28;20082;-58
2023/09/20 08:22:10;;;;;;;7.63;3.65;;;;;;;;;;5067711;28;20032;-58
2023/09/20 09:00:30;;;;;;;5.93;3.15;;;;;;;;;;5031594;28;20032;-57
2023/09/20 09:02:57;;;;;;;8.75;3.92;;;;;;;;;;5032911;28;20022;-58
2023/09/20 09:05:24;;;;;;;2.22;2.03;;;;;;;;;;5031168;28;20014;-57
2023/09/20 09:07:49;;;;;;;7.80;4.15;;;;;;;;;;5047788;28;20476;-57
2023/09/20 09:10:15;;;;;;;5.13;3.40;;;;;;;;;;5031375;28;20022;-57
2023/09/20 09:12:41;;;;;;;5.15;2.92;;;;;;;;;;5032065;28;20412;-57
2023/09/20 09:15:08;;;;;;;8.32;3.63;;;;;;;;;;5030894;28;20389;-57
2023/09/20 09:17:40;;;;;;;5.97;2.22;;;;;;;;;;5032368;28;20465;-57
2023/09/20 09:20:09;;;;;;;5.82;2.55;;;;;;;;;;5030983;28;20017;-56
2023/09/20 09:22:34;;;;;;;6.13;3.38;;;;;;;;;;5032455;28;20033;-57
2023/09/20 09:24:59;;;;;;;5.30;2.80;;;;;;;;;;5032509;28;20022;-57
2023/09/20 09:27:24;;;;;;;6.28;3.17;;;;;;;;;;5030539;28;20125;-57
2023/09/20 09:29:50;;;;;;;4.70;2.93;;;;;;;;;;5032145;28;20029;-57
2023/09/20 09:32:15;;;;;;;5.68;3.15;;;;;;;;;;5030393;28;20103;-57
2023/09/20 09:34:43;;;;;;;14.65;4.38;;;;;;;;;;5048140;28;20045;-57
2023/09/20 09:37:10;;;;;;;2.25;2.05;;;;;;;;;;5067491;28;20028;-57
2023/09/20 09:39:36;;;;;;;11.45;4.68;;;;;;;;;;5071833;28;20020;-58
2023/09/20 09:42:01;;;;;;;9.65;3.67;;;;;;;;;;5069839;28;20452;-59
2023/09/20 09:44:26;;;;;;;6.40;2.88;;;;;;;;;;5070705;28;20059;-58
2023/09/20 09:46:52;;;;;;;5.73;3.10;;;;;;;;;;5070328;28;20102;-57
2023/09/20 09:49:19;;;;;;;3.60;2.72;;;;;;;;;;5071541;28;20028;-58
2023/09/20 09:51:45;;;;;;;11.52;3.90;;;;;;;;;;5070105;28;20067;-57
2023/09/20 09:54:14;;;;;;;8.40;3.15;;;;;;;;;;5071752;28;20074;-58
2023/09/20 09:56:39;;;;;;;8.55;3.75;;;;;;;;;;5069716;28;20040;-58
2023/09/20 09:59:05;;;;;;;8.02;3.22;;;;;;;;;;5071523;28;20016;-58
2023/09/20 10:01:36;;;;;;;8.57;5.38;;;;;;;;;;5070052;28;20037;-58
2023/09/20 10:04:05;;;;;;;5.35;3.10;;;;;;;;;;5070030;28;20024;-57
2023/09/20 10:06:31;;;;;;;7.75;4.05;;;;;;;;;;5070135;28;20066;-57
2023/09/20 10:08:59;;;;;;;8.15;4.07;;;;;;;;;;5071611;28;20024;-57
2023/09/20 10:11:25;;;;;;;7.53;3.80;;;;;;;;;;5068247;28;20036;-57
2023/09/20 10:13:51;;;;;;;4.05;3.15;;;;;;;;;;5070934;28;20438;-57
2023/09/20 10:16:17;;;;;;;10.82;3.80;;;;;;;;;;5069976;28;20039;-58
2023/09/20 10:18:51;;;;;;;9.82;3.95;;;;;;;;;;5069229;28;20016;-58
2023/09/20 10:21:20;;;;;;;7.15;3.50;;;;;;;;;;5069977;28;20059;-58
2023/09/20 10:23:47;;;;;;;4.70;3.25;;;;;;;;;;5071032;28;20475;-60
2023/09/20 10:26:13;;;;;;;8.93;3.15;;;;;;;;;;5069306;28;20068;-58
2023/09/20 10:28:42;;;;;;;6.32;3.28;;;;;;;;;;5070828;28;20430;-58
2023/09/20 10:31:07;;;;;;;8.50;3.25;;;;;;;;;;5069647;28;20834;-58
2023/09/20 10:33:45;;;;;;;4.27;2.73;;;;;;;;;;5070268;28;20128;-57
2023/09/20 10:36:11;;;;;;;8.40;3.92;;;;;;;;;;5069662;28;20454;-58
2023/09/20 10:38:38;;;;;;;5.10;3.22;;;;;;;;;;5070551;28;20016;-58
2023/09/20 10:41:07;;;;;;;9.97;2.80;;;;;;;;;;5067734;28;20029;-58
2023/09/20 10:43:35;;;;;;;6.30;3.13;;;;;;;;;;5070953;28;20028;-57
2023/09/20 10:46:05;;;;;;;7.60;2.95;;;;;;;;;;5068891;28;20044;-57
2023/09/20 10:48:30;;;;;;;5.97;3.15;;;;;;;;;;5070577;28;20051;-58
2023/09/20 10:50:58;;;;;;;5.85;2.45;;;;;;;;;;5065348;28;20040;-58
2023/09/20 10:53:46;;;;;;;10.77;4.07;;;;;;;;;;5069935;28;20020;-58
2023/09/20 10:56:12;;;;;;;;;;;;;;;;;;5069528;28;20098;-58
2023/09/20 10:58:42;;;;;;;3.75;2.75;;;;;;;;;;5069887;28;19909;-58
2023/09/20 11:01:08;;;;;;;8.43;2.53;;;;;;;;;;5068243;28;20059;-58
2023/09/20 11:03:33;;;;;;;7.25;2.50;;;;;;;;;;5069716;28;20024;-58
2023/09/20 11:05:59;;;;;;;2.77;2.50;;;;;;;;;;5069083;28;20082;-57
2023/09/20 11:08:24;;;;;;;3.73;2.33;;;;;;;;;;5070514;28;20020;-57
2023/09/20 11:10:50;;;;;;;7.15;2.38;;;;;;;;;;5068439;28;20123;-58
2023/09/20 11:13:19;;;;;;;4.22;2.47;;;;;;;;;;5070845;28;20051;-58
2023/09/20 11:15:47;;;;;;;6.97;3.42;;;;;;;;;;5068907;28;20037;-58
2023/09/20 11:18:25;;;;;;;6.93;2.22;;;;;;;;;;5070142;28;20012;-58
2023/09/20 11:20:50;;;;;;;3.90;2.47;;;;;;;;;;5068886;28;20040;-58
2023/09/20 11:23:16;;;;;;;8.23;3.20;;;;;;;;;;5069348;28;20016;-58
2023/09/20 11:25:41;;;;;;;5.57;2.87;;;;;;;;;;5068137;28;20443;-58
2023/09/20 11:28:08;;;;;;;6.25;2.58;;;;;;;;;;5070356;28;20044;-58
2023/09/20 11:30:34;;;;;;;4.68;2.50;;;;;;;;;;5068863;28;20123;-58
2023/09/20 11:33:01;;;;;;;4.63;2.47;;;;;;;;;;5069915;28;20061;-58
2023/09/20 11:35:33;;;;;;;7.88;2.22;;;;;;;;;;5069034;28;20167;-58
2023/09/20 11:37:59;;;;;;;12.80;2.63;;;;;;;;;;5070184;28;20372;-58
2023/09/20 11:40:24;;;;;;;2.88;2.00;;;;;;;;;;5067025;28;20025;-57
2023/09/20 11:42:52;;;;;;;6.65;2.50;;;;;;;;;;5070200;28;20020;-58
2023/09/20 11:45:17;;;;;;;8.18;1.95;;;;;;;;;;5068638;28;20021;-58
2023/09/20 11:47:42;;;;;;;3.03;2.10;;;;;;;;;;5069837;28;20347;-58
2023/09/20 11:50:12;;;;;;;4.55;2.35;;;;;;;;;;5066462;28;21352;-58
2023/09/20 11:52:38;;;;;;;2.55;1.70;;;;;;;;;;5063711;28;20078;-58
2023/09/20 11:55:04;;;;;;;4.70;1.90;;;;;;;;;;5069999;28;20024;-58
2023/09/20 11:57:29;;;;;;;5.45;2.50;;;;;;;;;;5047265;28;20029;-58
2023/09/20 11:59:55;;;;;;;2.03;1.40;;;;;;;;;;5049702;28;20537;-58
2023/09/20 12:02:20;;;;;;;3.55;2.13;;;;;;;;;;5048310;28;20447;-58
2023/09/20 12:04:52;;;;;;;3.83;2.05;;;;;;;;;;5049628;28;20025;-58
2023/09/20 12:07:17;;;;;;;3.22;1.88;;;;;;;;;;5047947;28;20037;-58
2023/09/20 12:09:42;;;;;;;3.83;2.40;;;;;;;;;;5049419;28;20491;-58
2023/09/20 12:12:10;;;;;;;3.53;1.40;;;;;;;;;;5048360;28;20820;-58
2023/09/20 12:14:37;;;;;;;4.50;1.63;;;;;;;;;;5065089;28;20025;-58
2023/09/20 12:17:04;;;;;;;2.78;1.83;;;;;;;;;;5051191;28;20036;-58
2023/09/20 12:19:29;;;;;;;2.88;1.25;;;;;;;;;;5053800;28;20468;-58
2023/09/20 12:21:54;;;;;;;3.33;2.40;;;;;;;;;;5052092;28;20119;-58
2023/09/20 12:24:19;;;;;;;2.10;1.92;;;;;;;;;;5053647;28;20810;-58
2023/09/20 12:26:45;;;;;;;4.05;2.30;;;;;;;;;;5051970;28;20029;-58
2023/09/20 12:29:10;;;;;;;3.30;1.80;;;;;;;;;;5053435;28;20053;-58
2023/09/20 12:31:35;;;;;;;1.23;1.13;;;;;;;;;;5051546;28;20041;-58
2023/09/20 12:34:01;;;;;;;4.40;1.60;;;;;;;;;;5053470;28;20056;-58
2023/09/20 12:36:29;;;;;;;3.33;1.52;;;;;;;;;;5052117;28;20091;-58
2023/09/20 12:38:54;;;;;;;2.78;1.40;;;;;;;;;;5052831;28;20035;-58
2023/09/20 12:41:20;;;;;;;1.47;1.17;;;;;;;;;;5051992;28;20037;-58
2023/09/20 12:43:46;;;;;;;3.97;1.48;;;;;;;;;;5053586;28;20017;-58
2023/09/20 12:46:11;;;;;;;4.60;2.38;;;;;;;;;;5051600;28;20036;-58
2023/09/20 12:48:36;;;;;;;1.53;1.20;;;;;;;;;;5053101;28;20096;-58
2023/09/20 12:51:03;;;;;;;8.18;1.52;;;;;;;;;;5051543;28;20041;-58
2023/09/20 12:53:28;;;;;;;3.22;1.67;;;;;;;;;;5052666;28;20025;-58
2023/09/20 12:55:53;;;;;;;1.70;1.50;;;;;;;;;;5051424;28;20136;-58
2023/09/20 12:58:18;;;;;;;3.67;1.37;;;;;;;;;;5053017;28;20074;-58
2023/09/20 13:00:44;;;;;;;3.28;1.35;;;;;;;;;;5050962;28;20029;-61
2023/09/20 13:03:09;;;;;;;2.13;1.50;;;;;;;;;;5068358;28;20013;-58
2023/09/20 13:05:35;;;;;;;4.20;1.40;;;;;;;;;;5050458;28;20606;-58
2023/09/20 13:08:00;;;;;;;4.60;2.65;;;;;;;;;;5051115;28;20036;-59
2023/09/20 13:10:29;;;;;;;4.90;2.22;;;;;;;;;;5051561;28;20036;-59
2023/09/20 13:12:54;;;;;;;4.90;1.85;;;;;;;;;;5052590;28;20029;-59
2023/09/20 13:15:20;;;;;;;4.63;2.08;;;;;;;;;;5048576;28;20028;-58
2023/09/20 13:17:50;;;;;;;1.85;1.67;;;;;;;;;;5050989;28;20079;-59
2023/09/20 13:20:18;;;;;;;3.03;1.58;;;;;;;;;;5050917;28;20032;-58
2023/09/20 13:22:43;;;;;;;2.20;1.15;;;;;;;;;;5051851;28;20020;-58
2023/09/20 13:25:09;;;;;;;4.50;2.13;;;;;;;;;;5051117;28;20029;-59
2023/09/20 13:27:34;;;;;;;8.50;2.88;;;;;;;;;;5051927;28;20438;-59
2023/09/20 13:30:00;;;;;;;9.52;2.42;;;;;;;;;;5052372;28;20044;-59
2023/09/20 13:32:26;;;;;;;2.17;1.87;;;;;;;;;;5050939;28;20033;-60
2023/09/20 13:34:53;;;;;;;4.07;1.95;;;;;;;;;;5052084;28;20357;-59
2023/09/20 13:37:19;;;;;;;2.25;1.10;;;;;;;;;;5050390;28;20036;-59
2023/09/20 13:39:44;;;;;;;3.95;1.98;;;;;;;;;;5051998;28;20017;-59
2023/09/20 13:42:12;;;;;;;3.88;1.77;;;;;;;;;;5050951;28;20116;-58
2023/09/20 13:44:40;;;;;;;2.53;1.25;;;;;;;;;;5051575;28;20020;-58
2023/09/20 13:47:06;;;;;;;3.40;2.80;;;;;;;;;;5049599;28;20060;-59
2023/09/20 13:49:32;;;;;;;1.42;1.20;;;;;;;;;;5052118;28;20021;-59
2023/09/20 13:51:57;;;;;;;8.00;2.15;;;;;;;;;;5048838;28;20110;-58
2023/09/20 13:54:22;;;;;;;18.92;6.07;;;;;;;;;;5052131;28;20017;-59
2023/09/20 13:56:48;;;;;;;4.50;2.33;;;;;;;;;;5050247;28;20040;-58
2023/09/20 13:59:15;;;;;;;3.60;1.70;;;;;;;;;;5051580;28;20597;-58
2023/09/20 14:01:40;;;;;;;10.00;2.73;;;;;;;;;;5049264;28;20040;-58
2023/09/20 14:04:07;;;;;;;1.60;1.03;;;;;;;;;;5050583;28;20025;-58
2023/09/20 14:06:32;;;;;;;7.13;1.75;;;;;;;;;;5048327;28;20044;-59
2023/09/20 14:08:57;;;;;;;2.35;1.20;;;;;;;;;;5051554;28;20021;-58
2023/09/20 14:11:23;;;;;;;2.70;1.95;;;;;;;;;;5050352;28;20033;-59
2023/09/20 14:13:48;;;;;;;3.10;1.20;;;;;;;;;;5051621;28;20017;-58
2023/09/20 14:16:14;;;;;;;6.67;1.67;;;;;;;;;;5053374;28;20033;-58
2023/09/20 14:18:40;;;;;;;3.25;1.65;;;;;;;;;;5070673;28;20108;-58
2023/09/20 14:21:05;;;;;;;5.82;2.20;;;;;;;;;;5068766;28;20175;-58
2023/09/20 14:23:30;;;;;;;8.20;2.22;;;;;;;;;;5071161;28;20040;-59
2023/09/20 14:25:56;;;;;;;2.85;1.67;;;;;;;;;;5069673;28;20040;-58
2023/09/20 14:28:22;;;;;;;2.63;1.77;;;;;;;;;;5070285;28;20529;-59
2023/09/20 14:30:47;;;;;;;3.85;1.52;;;;;;;;;;5069431;28;20044;-58
2023/09/20 14:33:13;;;;;;;3.43;2.47;;;;;;;;;;5070992;28;20047;-58
2023/09/20 14:35:38;;;;;;;4.95;2.67;;;;;;;;;;5069650;28;20477;-59
2023/09/20 14:38:04;;;;;;;5.78;1.92;;;;;;;;;;5070125;28;20016;-58
2023/09/20 14:40:29;;;;;;;8.30;1.75;;;;;;;;;;5069269;28;20120;-58
2023/09/20 14:42:55;;;;;;;2.00;1.50;;;;;;;;;;5071117;28;20039;-58
2023/09/20 14:45:22;;;;;;;1.60;1.30;;;;;;;;;;5069547;28;20035;-58
2023/09/20 14:47:51;;;;;;;2.78;2.10;;;;;;;;;;5070456;28;20042;-58
2023/09/20 14:50:16;;;;;;;5.47;1.67;;;;;;;;;;5069418;28;20025;-58
2023/09/20 14:52:42;;;;;;;1.60;1.38;;;;;;;;;;5068526;28;20020;-58
2023/09/20 14:55:12;;;;;;;6.15;2.00;;;;;;;;;;5068188;28;20494;-57
2023/09/20 14:57:37;;;;;;;2.95;1.88;;;;;;;;;;5070610;28;20069;-58
2023/09/20 15:00:06;;;;;;;5.25;1.80;;;;;;;;;;5069986;28;20099;-56
2023/09/20 15:02:31;;;;;;;5.70;1.52;;;;;;;;;;5071067;28;20028;-58
2023/09/20 15:04:58;;;;;;;6.07;1.48;;;;;;;;;;5069229;28;20494;-59
2023/09/20 15:07:23;;;;;;;4.03;1.63;;;;;;;;;;5065768;28;20083;-59
2023/09/20 15:09:49;;;;;;;2.80;1.77;;;;;;;;;;5049113;28;20114;-58
2023/09/20 15:12:17;;;;;;;5.72;2.13;;;;;;;;;;5050720;28;20063;-58
2023/09/20 15:14:43;;;;;;;6.20;1.73;;;;;;;;;;5050046;28;20486;-58